www.wetter-lohne.de
Wetterdaten: aktuell Donnerstag, 07.05.2026 23:15
Datum Zeit Temp. I. Temp. A. Boden 5cm Temp. A. min Temp. A. max Feuchte I. Feuchte A. Luftdruck Regen Wind Richtung Richtung Sonnenschein ET Solar Taupunkt Windchill Windböen Empfang
07.05.2026 23:15 18,3 °C 6,7 °C 3,9 °C 6,7 °C 6,8 °C 61 % 88 % 1017,5 hPa 0,0 mm 0,0 km/h (0 Bft) SO 135 ° 0 min 0,000 mm 0 W/m² 4,9 °C 6,7 °C 0,0 km/h (0 Bft) 100,00 %
07.05.2026 22:15 18,5 °C 7,9 °C 5,0 °C 7,9 °C 8,1 °C 60 % 86 % 1017,2 hPa 0,0 mm 0,0 km/h (0 Bft) SO 135 ° 0 min 0,000 mm 0 W/m² 5,7 °C 7,9 °C 0,0 km/h (0 Bft) 100,00 %
07.05.2026 21:15 18,6 °C 9,8 °C 7,2 °C 9,8 °C 10,0 °C 60 % 81 % 1016,6 hPa 0,0 mm 0,0 km/h (0 Bft) SO 135 ° 5 min 0,025 mm 0 W/m² 6,7 °C 9,8 °C 0,0 km/h (0 Bft) 93,44 %
07.05.2026 20:15 18,6 °C 11,8 °C 10,0 °C 11,8 °C 11,9 °C 59 % 75 % 1016,3 hPa 0,0 mm 0,0 km/h (0 Bft) S 177 ° 55 min 0,077 mm 54 W/m² 7,5 °C 11,8 °C 0,0 km/h (0 Bft) 98,17 %
07.05.2026 19:15 18,6 °C 12,9 °C 12,2 °C 12,9 °C 12,9 °C 59 % 72 % 1015,9 hPa 0,0 mm 0,0 km/h (0 Bft) O-SO 104 ° 55 min 0,152 mm 211 W/m² 8,0 °C 12,9 °C 0,0 km/h (0 Bft) 95,83 %
07.05.2026 18:15 18,5 °C 13,1 °C 15,0 °C 13,0 °C 13,1 °C 59 % 71 % 1015,8 hPa 0,0 mm 0,0 km/h (0 Bft) O-NO 69 ° 45 min 0,203 mm 407 W/m² 8,0 °C 13,1 °C 0,0 km/h (0 Bft) 98,17 %
07.05.2026 17:15 18,3 °C 12,5 °C 14,4 °C 12,3 °C 12,5 °C 59 % 74 % 1015,8 hPa 0,0 mm 0,0 km/h (0 Bft) O-SO 106 ° 40 min 0,229 mm 527 W/m² 8,0 °C 12,5 °C 0,0 km/h (0 Bft) 99,17 %
07.05.2026 16:15 18,1 °C 11,7 °C 13,3 °C 11,2 °C 11,7 °C 59 % 81 % 1015,8 hPa 0,0 mm 0,0 km/h (0 Bft) S 172 ° 5 min 0,076 mm 674 W/m² 8,5 °C 11,7 °C 0,0 km/h (0 Bft) 98,33 %
07.05.2026 15:15 17,9 °C 10,4 °C 11,1 °C 10,4 °C 10,4 °C 59 % 79 % 1015,9 hPa 0,0 mm 0,0 km/h (0 Bft) O-NO 73 ° 0 min 0,076 mm 136 W/m² 6,9 °C 10,4 °C 0,0 km/h (0 Bft) 97,46 %
07.05.2026 14:15 17,9 °C 10,6 °C 11,7 °C 10,5 °C 10,6 °C 59 % 79 % 1015,5 hPa 0,0 mm 0,0 km/h (0 Bft) N-NW 333 ° 0 min 0,102 mm 173 W/m² 7,1 °C 10,6 °C 0,0 km/h (0 Bft) 93,33 %
07.05.2026 13:39 17,9 °C 10,4 °C 11,7 °C 10,4 °C 10,4 °C 58 % 80 % 1015,4 hPa 0,0 mm 0,0 km/h (0 Bft) O-NO 67 ° 0 min 0,101 mm 172 W/m² 7,1 °C 10,4 °C 1,6 km/h (1 Bft) 100,00 %
07.05.2026 12:55 17,8 °C 10,3 °C 11,1 °C 10,1 °C 10,3 °C 58 % 81 % 1015,2 hPa 0,0 mm 0,0 km/h (0 Bft) N 9 ° 0 min 0,077 mm 186 W/m² 7,2 °C 10,3 °C 0,0 km/h (0 Bft) 95,37 %
07.05.2026 11:55 17,8 °C 9,6 °C 10,6 °C 9,6 °C 9,7 °C 58 % 83 % 1014,8 hPa 0,0 mm 0,0 km/h (0 Bft) O-NO 67 ° 0 min 0,050 mm 154 W/m² 6,9 °C 9,6 °C 0,0 km/h (0 Bft) 100,00 %
07.05.2026 10:55 17,9 °C 9,5 °C 10,0 °C 9,4 °C 9,6 °C 58 % 83 % 1014,2 hPa 0,0 mm 0,0 km/h (0 Bft) N 355 ° 0 min 0,051 mm 128 W/m² 6,8 °C 9,5 °C 0,0 km/h (0 Bft) 100,00 %
07.05.2026 09:55 17,9 °C 9,1 °C 9,4 °C 9,1 °C 9,1 °C 58 % 86 % 1013,6 hPa 0,0 mm 0,9 km/h (0 Bft) O-NO 67 ° 0 min 0,026 mm 120 W/m² 6,9 °C 9,1 °C 6,4 km/h (2 Bft) 95,50 %
07.05.2026 08:55 18,1 °C 8,9 °C 9,4 °C 8,9 °C 8,9 °C 58 % 88 % 1013,0 hPa 0,0 mm 0,0 km/h (0 Bft) N 350 ° 0 min 0,025 mm 66 W/m² 7,0 °C 8,9 °C 0,0 km/h (0 Bft) 100,00 %
07.05.2026 07:55 18,1 °C 8,4 °C 8,9 °C 8,4 °C 8,4 °C 59 % 93 % 1012,5 hPa 0,0 mm 0,6 km/h (0 Bft) N 358 ° 0 min 0,000 mm 55 W/m² 7,3 °C 8,4 °C 6,4 km/h (2 Bft) 97,50 %
07.05.2026 06:55 18,1 °C 7,9 °C 8,3 °C 7,9 °C 7,9 °C 58 % 93 % 1011,9 hPa 0,0 mm 0,0 km/h (0 Bft) N-NW 340 ° 0 min 0,000 mm 31 W/m² 6,8 °C 7,9 °C 0,0 km/h (0 Bft) 94,17 %
07.05.2026 05:55 18,1 °C 7,9 °C 6,7 °C 7,8 °C 7,9 °C 58 % 93 % 1011,4 hPa 0,0 mm 0,0 km/h (0 Bft) N-NW 340 ° 0 min 0,000 mm 0 W/m² 6,8 °C 7,9 °C 0,0 km/h (0 Bft) 98,20 %
07.05.2026 04:55 18,1 °C 7,4 °C 6,1 °C 7,4 °C 7,6 °C 58 % 92 % 1011,0 hPa 0,0 mm 0,0 km/h (0 Bft) N-NW 340 ° 0 min 0,000 mm 0 W/m² 6,2 °C 7,4 °C 0,0 km/h (0 Bft) 100,00 %
07.05.2026 03:55 18,2 °C 8,4 °C 7,8 °C 8,4 °C 8,5 °C 58 % 92 % 1010,7 hPa 0,0 mm 0,0 km/h (0 Bft) N-NW 340 ° 0 min 0,000 mm 0 W/m² 7,2 °C 8,4 °C 0,0 km/h (0 Bft) 95,00 %
07.05.2026 02:55 18,3 °C 8,8 °C 8,3 °C 8,8 °C 8,9 °C 58 % 92 % 1010,3 hPa 0,0 mm 0,0 km/h (0 Bft) N-NW 340 ° 0 min 0,000 mm 0 W/m² 7,6 °C 8,8 °C 0,0 km/h (0 Bft) 96,75 %
07.05.2026 01:55 18,3 °C 8,9 °C 8,9 °C 8,8 °C 8,9 °C 58 % 92 % 1010,1 hPa 0,0 mm 0,0 km/h (0 Bft) N-NW 340 ° 0 min 0,000 mm 0 W/m² 7,7 °C 8,9 °C 0,0 km/h (0 Bft) 99,10 %
07.05.2026 00:55 18,4 °C 8,8 °C 8,9 °C 8,8 °C 8,9 °C 58 % 91 % 1009,9 hPa 0,0 mm 0,0 km/h (0 Bft) N-NW 340 ° 0 min 0,000 mm 0 W/m² 7,4 °C 8,8 °C 0,0 km/h (0 Bft) 96,67 %
07.05.2026 00:00 18,4 °C 8,8 °C 8,9 °C 8,8 °C 8,8 °C 58 % 91 % 1009,9 hPa 0,0 mm 0,0 km/h (0 Bft) N-NW 340 ° 0 min 0,000 mm 0 W/m² 7,4 °C 8,8 °C 0,0 km/h (0 Bft) 100,00 %
_ Min-Zeit 11:20 23:15 23:00 23:15 23:15 00:00 17:30 00:05 - 00:00 - - - - - 23:15 23:15 00:00 11:30
Minimum _ 17,8 °C 6,7 °C 3,9 °C 6,7 °C 6,8 °C 58 % 69 % 1009,8 hPa - 0,0 km/h (0 Bft) - - - - - 4,9 °C 6,7 °C 0,0 km/h (0 Bft) 77,06 %
_ Max-Zeit 19:30 18:20 16:40 18:45 18:20 22:25 05:00 23:05 00:00 13:30 - - 16:15 17:00 16:20 16:35 18:05 09:20 00:00
Maximum _ 18,7 °C 13,3 °C 16,1 °C 13,2 °C 13,3 °C 61 % 93 % 1017,5 hPa 0,0 mm 3,4 km/h
O-NO (1 Bft)
- - 5 min 0,229 mm 676 W/m² 8,8 °C 13,2 °C 14,5 km/h
O-NO (3 Bft)
100,00 %
Durchschnitt _ 18,2 °C 9,7 °C 9,7 °C 9,7 °C 9,7 °C 59 % 84 % 1013,8 hPa #0,0 mm 0,1 km/h (0 Bft) N-NW - #3:25 h #1,270 mm 171 W/m² 7,1 °C 9,7 °C 0,7 km/h (0 Bft) 97,26 %
©2010 Thomas Mönnich